sensor_id;sensor_type;location;lat;lon;timestamp;P1;durP1;ratioP1;P2;durP2;ratioP2
76591;SDS011;65481;47.600;19.682;2023-04-24T00:03:06;12.52;;;7.28;;
76591;SDS011;65481;47.600;19.682;2023-04-24T00:08:07;9.77;;;6.85;;
76591;SDS011;65481;47.600;19.682;2023-04-24T00:13:08;9.23;;;7.13;;
76591;SDS011;65481;47.600;19.682;2023-04-24T00:18:08;15.25;;;7.43;;
76591;SDS011;65481;47.600;19.682;2023-04-24T00:23:09;10.57;;;7.05;;
76591;SDS011;65481;47.600;19.682;2023-04-24T00:28:09;13.82;;;8.68;;
76591;SDS011;65481;47.600;19.682;2023-04-24T00:33:10;10.45;;;7.25;;
76591;SDS011;65481;47.600;19.682;2023-04-24T00:38:10;10.15;;;8.07;;
76591;SDS011;65481;47.600;19.682;2023-04-24T00:43:11;10.88;;;7.30;;
76591;SDS011;65481;47.600;19.682;2023-04-24T00:48:12;10.60;;;7.65;;
76591;SDS011;65481;47.600;19.682;2023-04-24T00:53:13;9.90;;;7.20;;
76591;SDS011;65481;47.600;19.682;2023-04-24T00:58:13;9.65;;;7.00;;
76591;SDS011;65481;47.600;19.682;2023-04-24T01:03:14;10.05;;;7.28;;
76591;SDS011;65481;47.600;19.682;2023-04-24T01:08:15;10.88;;;7.25;;
76591;SDS011;65481;47.600;19.682;2023-04-24T01:13:16;9.68;;;7.20;;
76591;SDS011;65481;47.600;19.682;2023-04-24T01:18:18;13.38;;;7.85;;
76591;SDS011;65481;47.600;19.682;2023-04-24T01:23:19;10.35;;;7.55;;
76591;SDS011;65481;47.600;19.682;2023-04-24T01:28:19;12.68;;;8.52;;
76591;SDS011;65481;47.600;19.682;2023-04-24T01:33:21;12.95;;;7.78;;
76591;SDS011;65481;47.600;19.682;2023-04-24T01:38:22;15.82;;;8.43;;
76591;SDS011;65481;47.600;19.682;2023-04-24T01:43:22;11.65;;;8.43;;
76591;SDS011;65481;47.600;19.682;2023-04-24T01:48:24;11.75;;;8.80;;
76591;SDS011;65481;47.600;19.682;2023-04-24T01:53:24;12.95;;;8.77;;
76591;SDS011;65481;47.600;19.682;2023-04-24T01:58:25;12.32;;;8.48;;
76591;SDS011;65481;47.600;19.682;2023-04-24T02:03:26;12.50;;;8.25;;
76591;SDS011;65481;47.600;19.682;2023-04-24T02:08:27;10.32;;;7.75;;
76591;SDS011;65481;47.600;19.682;2023-04-24T02:13:27;10.98;;;8.10;;
76591;SDS011;65481;47.600;19.682;2023-04-24T02:18:28;11.80;;;9.48;;
76591;SDS011;65481;47.600;19.682;2023-04-24T02:23:29;13.20;;;9.38;;
76591;SDS011;65481;47.600;19.682;2023-04-24T02:28:29;17.75;;;10.52;;
76591;SDS011;65481;47.600;19.682;2023-04-24T02:33:30;12.27;;;9.52;;
76591;SDS011;65481;47.600;19.682;2023-04-24T02:38:30;10.73;;;8.65;;
76591;SDS011;65481;47.600;19.682;2023-04-24T02:43:31;10.95;;;8.75;;
76591;SDS011;65481;47.600;19.682;2023-04-24T02:48:31;19.20;;;9.60;;
76591;SDS011;65481;47.600;19.682;2023-04-24T02:53:32;18.75;;;9.40;;
76591;SDS011;65481;47.600;19.682;2023-04-24T02:58:33;11.05;;;8.95;;
76591;SDS011;65481;47.600;19.682;2023-04-24T03:03:34;13.57;;;8.90;;
76591;SDS011;65481;47.600;19.682;2023-04-24T03:08:34;14.25;;;9.60;;
76591;SDS011;65481;47.600;19.682;2023-04-24T03:13:35;13.95;;;9.20;;
76591;SDS011;65481;47.600;19.682;2023-04-24T03:18:35;11.68;;;9.07;;
76591;SDS011;65481;47.600;19.682;2023-04-24T03:23:36;11.77;;;9.60;;
76591;SDS011;65481;47.600;19.682;2023-04-24T03:28:36;15.27;;;10.43;;
76591;SDS011;65481;47.600;19.682;2023-04-24T03:33:37;13.38;;;9.93;;
76591;SDS011;65481;47.600;19.682;2023-04-24T03:38:37;15.18;;;9.95;;
76591;SDS011;65481;47.600;19.682;2023-04-24T03:43:38;15.73;;;9.52;;
76591;SDS011;65481;47.600;19.682;2023-04-24T03:48:39;15.82;;;11.15;;
76591;SDS011;65481;47.600;19.682;2023-04-24T03:53:39;13.68;;;10.32;;
76591;SDS011;65481;47.600;19.682;2023-04-24T03:58:40;13.90;;;10.20;;
76591;SDS011;65481;47.600;19.682;2023-04-24T04:03:41;32.80;;;20.70;;
76591;SDS011;65481;47.600;19.682;2023-04-24T04:08:41;71.05;;;36.20;;
76591;SDS011;65481;47.600;19.682;2023-04-24T04:13:42;42.50;;;28.08;;
76591;SDS011;65481;47.600;19.682;2023-04-24T04:18:43;31.42;;;19.90;;
76591;SDS011;65481;47.600;19.682;2023-04-24T04:23:44;16.33;;;12.27;;
76591;SDS011;65481;47.600;19.682;2023-04-24T04:28:44;17.63;;;11.48;;
76591;SDS011;65481;47.600;19.682;2023-04-24T04:33:45;14.57;;;10.48;;
76591;SDS011;65481;47.600;19.682;2023-04-24T04:38:45;17.45;;;12.35;;
76591;SDS011;65481;47.600;19.682;2023-04-24T04:43:46;14.85;;;11.07;;
76591;SDS011;65481;47.600;19.682;2023-04-24T04:48:47;14.52;;;10.77;;
76591;SDS011;65481;47.600;19.682;2023-04-24T04:53:48;13.88;;;11.20;;
76591;SDS011;65481;47.600;19.682;2023-04-24T04:58:49;16.25;;;11.88;;
76591;SDS011;65481;47.600;19.682;2023-04-24T05:03:49;13.68;;;10.60;;
76591;SDS011;65481;47.600;19.682;2023-04-24T05:08:50;14.60;;;11.55;;
76591;SDS011;65481;47.600;19.682;2023-04-24T05:13:51;14.65;;;10.75;;
76591;SDS011;65481;47.600;19.682;2023-04-24T05:18:51;16.27;;;11.38;;
76591;SDS011;65481;47.600;19.682;2023-04-24T05:23:52;16.20;;;11.43;;
76591;SDS011;65481;47.600;19.682;2023-04-24T05:28:52;15.23;;;11.10;;
76591;SDS011;65481;47.600;19.682;2023-04-24T05:33:53;16.23;;;11.98;;
76591;SDS011;65481;47.600;19.682;2023-04-24T05:38:53;14.95;;;11.00;;
76591;SDS011;65481;47.600;19.682;2023-04-24T05:43:55;13.90;;;10.85;;
76591;SDS011;65481;47.600;19.682;2023-04-24T05:48:56;16.42;;;10.77;;
76591;SDS011;65481;47.600;19.682;2023-04-24T05:53:56;13.50;;;10.90;;
76591;SDS011;65481;47.600;19.682;2023-04-24T05:58:57;12.88;;;11.10;;
76591;SDS011;65481;47.600;19.682;2023-04-24T06:03:57;13.60;;;11.13;;
76591;SDS011;65481;47.600;19.682;2023-04-24T06:08:58;14.73;;;10.40;;
76591;SDS011;65481;47.600;19.682;2023-04-24T06:13:58;12.93;;;9.98;;
76591;SDS011;65481;47.600;19.682;2023-04-24T06:18:59;14.65;;;10.88;;
76591;SDS011;65481;47.600;19.682;2023-04-24T06:23:59;16.15;;;9.98;;
76591;SDS011;65481;47.600;19.682;2023-04-24T06:29:00;13.75;;;9.85;;
76591;SDS011;65481;47.600;19.682;2023-04-24T06:34:01;13.30;;;9.40;;
76591;SDS011;65481;47.600;19.682;2023-04-24T06:39:01;13.45;;;9.85;;
76591;SDS011;65481;47.600;19.682;2023-04-24T06:44:06;13.55;;;10.13;;
76591;SDS011;65481;47.600;19.682;2023-04-24T06:49:07;12.85;;;10.35;;
76591;SDS011;65481;47.600;19.682;2023-04-24T06:54:07;12.70;;;9.88;;
76591;SDS011;65481;47.600;19.682;2023-04-24T06:59:08;14.18;;;9.82;;
76591;SDS011;65481;47.600;19.682;2023-04-24T07:04:08;15.65;;;9.98;;
76591;SDS011;65481;47.600;19.682;2023-04-24T07:09:09;13.50;;;10.52;;
76591;SDS011;65481;47.600;19.682;2023-04-24T07:14:09;12.27;;;9.93;;
76591;SDS011;65481;47.600;19.682;2023-04-24T07:19:10;12.63;;;10.15;;
76591;SDS011;65481;47.600;19.682;2023-04-24T07:24:11;14.82;;;10.60;;
76591;SDS011;65481;47.600;19.682;2023-04-24T07:29:13;13.65;;;9.88;;
76591;SDS011;65481;47.600;19.682;2023-04-24T07:34:14;13.52;;;10.48;;
76591;SDS011;65481;47.600;19.682;2023-04-24T07:39:15;15.00;;;10.65;;
76591;SDS011;65481;47.600;19.682;2023-04-24T07:44:16;13.38;;;10.35;;
76591;SDS011;65481;47.600;19.682;2023-04-24T07:49:17;12.85;;;10.45;;
76591;SDS011;65481;47.600;19.682;2023-04-24T07:54:18;14.52;;;10.85;;
76591;SDS011;65481;47.600;19.682;2023-04-24T07:59:18;12.80;;;9.82;;
76591;SDS011;65481;47.600;19.682;2023-04-24T08:04:19;13.02;;;10.70;;
76591;SDS011;65481;47.600;19.682;2023-04-24T08:09:19;14.43;;;10.20;;
76591;SDS011;65481;47.600;19.682;2023-04-24T08:14:20;15.07;;;11.18;;
76591;SDS011;65481;47.600;19.682;2023-04-24T08:19:20;15.07;;;10.93;;
76591;SDS011;65481;47.600;19.682;2023-04-24T08:24:21;13.50;;;11.10;;
76591;SDS011;65481;47.600;19.682;2023-04-24T08:29:22;17.58;;;12.52;;
76591;SDS011;65481;47.600;19.682;2023-04-24T08:34:23;16.17;;;11.40;;
76591;SDS011;65481;47.600;19.682;2023-04-24T08:39:23;18.13;;;12.02;;
76591;SDS011;65481;47.600;19.682;2023-04-24T08:44:24;17.05;;;12.23;;
76591;SDS011;65481;47.600;19.682;2023-04-24T08:49:25;17.05;;;12.52;;
76591;SDS011;65481;47.600;19.682;2023-04-24T08:54:28;16.42;;;12.57;;
76591;SDS011;65481;47.600;19.682;2023-04-24T08:59:29;17.67;;;13.05;;
76591;SDS011;65481;47.600;19.682;2023-04-24T09:04:31;17.63;;;13.00;;
76591;SDS011;65481;47.600;19.682;2023-04-24T09:09:34;18.17;;;13.18;;
76591;SDS011;65481;47.600;19.682;2023-04-24T09:14:36;17.02;;;12.43;;
76591;SDS011;65481;47.600;19.682;2023-04-24T09:19:39;16.33;;;11.55;;
76591;SDS011;65481;47.600;19.682;2023-04-24T09:24:40;13.10;;;11.02;;
76591;SDS011;65481;47.600;19.682;2023-04-24T09:29:53;14.20;;;12.60;;
76591;SDS011;65481;47.600;19.682;2023-04-24T09:35:04;16.00;;;11.70;;
76591;SDS011;65481;47.600;19.682;2023-04-24T09:45:15;16.40;;;11.73;;
76591;SDS011;65481;47.600;19.682;2023-04-24T09:50:16;19.50;;;13.13;;
76591;SDS011;65481;47.600;19.682;2023-04-24T09:55:19;15.55;;;12.75;;
76591;SDS011;65481;47.600;19.682;2023-04-24T10:00:24;15.75;;;13.23;;
76591;SDS011;65481;47.600;19.682;2023-04-24T10:05:27;17.08;;;12.65;;
76591;SDS011;65481;47.600;19.682;2023-04-24T10:10:30;14.20;;;11.77;;
76591;SDS011;65481;47.600;19.682;2023-04-24T10:15:31;12.68;;;11.13;;
76591;SDS011;65481;47.600;19.682;2023-04-24T10:20:33;16.17;;;11.70;;
76591;SDS011;65481;47.600;19.682;2023-04-24T10:25:35;22.10;;;16.92;;
76591;SDS011;65481;47.600;19.682;2023-04-24T10:30:39;13.00;;;11.68;;
76591;SDS011;65481;47.600;19.682;2023-04-24T10:35:44;13.75;;;11.65;;
76591;SDS011;65481;47.600;19.682;2023-04-24T10:40:48;13.90;;;11.00;;
76591;SDS011;65481;47.600;19.682;2023-04-24T10:46:02;12.70;;;11.40;;
76591;SDS011;65481;47.600;19.682;2023-04-24T10:51:03;16.00;;;11.45;;
76591;SDS011;65481;47.600;19.682;2023-04-24T11:01:22;14.20;;;11.67;;
76591;SDS011;65481;47.600;19.682;2023-04-24T11:06:30;15.07;;;11.63;;
76591;SDS011;65481;47.600;19.682;2023-04-24T11:11:35;13.77;;;12.05;;
76591;SDS011;65481;47.600;19.682;2023-04-24T11:16:53;12.18;;;10.77;;
76591;SDS011;65481;47.600;19.682;2023-04-24T11:22:01;13.18;;;11.32;;
76591;SDS011;65481;47.600;19.682;2023-04-24T11:37:18;14.50;;;12.10;;
76591;SDS011;65481;47.600;19.682;2023-04-24T11:42:19;12.98;;;11.43;;
76591;SDS011;65481;47.600;19.682;2023-04-24T11:47:28;13.38;;;11.95;;
76591;SDS011;65481;47.600;19.682;2023-04-24T11:52:30;15.15;;;13.00;;
76591;SDS011;65481;47.600;19.682;2023-04-24T11:57:31;15.05;;;11.75;;
76591;SDS011;65481;47.600;19.682;2023-04-24T12:02:34;13.25;;;11.25;;
76591;SDS011;65481;47.600;19.682;2023-04-24T12:07:41;16.50;;;12.60;;
76591;SDS011;65481;47.600;19.682;2023-04-24T12:12:42;13.48;;;12.05;;
76591;SDS011;65481;47.600;19.682;2023-04-24T12:17:46;14.82;;;12.25;;
76591;SDS011;65481;47.600;19.682;2023-04-24T12:28:08;17.75;;;11.93;;
76591;SDS011;65481;47.600;19.682;2023-04-24T12:33:11;16.05;;;12.85;;
76591;SDS011;65481;47.600;19.682;2023-04-24T12:38:12;13.70;;;11.68;;
76591;SDS011;65481;47.600;19.682;2023-04-24T12:43:14;14.45;;;11.23;;
76591;SDS011;65481;47.600;19.682;2023-04-24T12:48:16;15.75;;;11.02;;
76591;SDS011;65481;47.600;19.682;2023-04-24T12:53:16;9.77;;;7.80;;
76591;SDS011;65481;47.600;19.682;2023-04-24T12:58:17;7.65;;;5.60;;
76591;SDS011;65481;47.600;19.682;2023-04-24T13:03:17;19.33;;;8.95;;
76591;SDS011;65481;47.600;19.682;2023-04-24T13:08:18;30.83;;;19.17;;
76591;SDS011;65481;47.600;19.682;2023-04-24T13:13:19;33.42;;;24.10;;
76591;SDS011;65481;47.600;19.682;2023-04-24T13:18:19;15.65;;;9.38;;
76591;SDS011;65481;47.600;19.682;2023-04-24T13:23:20;6.93;;;5.15;;
76591;SDS011;65481;47.600;19.682;2023-04-24T13:28:21;16.40;;;10.35;;
76591;SDS011;65481;47.600;19.682;2023-04-24T13:33:23;25.95;;;14.07;;
76591;SDS011;65481;47.600;19.682;2023-04-24T13:38:23;16.73;;;8.85;;
76591;SDS011;65481;47.600;19.682;2023-04-24T13:43:24;15.85;;;9.32;;
76591;SDS011;65481;47.600;19.682;2023-04-24T13:48:25;13.38;;;7.97;;
76591;SDS011;65481;47.600;19.682;2023-04-24T13:53:25;12.63;;;8.98;;
76591;SDS011;65481;47.600;19.682;2023-04-24T13:58:26;14.20;;;10.80;;
76591;SDS011;65481;47.600;19.682;2023-04-24T14:03:27;25.27;;;16.25;;
76591;SDS011;65481;47.600;19.682;2023-04-24T14:08:27;20.02;;;12.73;;
76591;SDS011;65481;47.600;19.682;2023-04-24T14:13:28;18.17;;;12.93;;
76591;SDS011;65481;47.600;19.682;2023-04-24T14:18:29;18.25;;;13.25;;
76591;SDS011;65481;47.600;19.682;2023-04-24T14:23:29;19.52;;;15.35;;
76591;SDS011;65481;47.600;19.682;2023-04-24T14:28:30;20.65;;;15.38;;
76591;SDS011;65481;47.600;19.682;2023-04-24T14:33:31;15.73;;;11.30;;
76591;SDS011;65481;47.600;19.682;2023-04-24T14:38:31;6.65;;;5.03;;
76591;SDS011;65481;47.600;19.682;2023-04-24T14:43:32;5.28;;;3.40;;
76591;SDS011;65481;47.600;19.682;2023-04-24T14:48:33;4.55;;;3.85;;
76591;SDS011;65481;47.600;19.682;2023-04-24T14:53:34;5.32;;;3.42;;
76591;SDS011;65481;47.600;19.682;2023-04-24T14:58:35;4.88;;;3.80;;
76591;SDS011;65481;47.600;19.682;2023-04-24T15:03:35;6.97;;;4.25;;
76591;SDS011;65481;47.600;19.682;2023-04-24T15:08:36;5.43;;;4.60;;
76591;SDS011;65481;47.600;19.682;2023-04-24T15:13:37;5.40;;;4.60;;
76591;SDS011;65481;47.600;19.682;2023-04-24T15:18:37;6.47;;;4.68;;
76591;SDS011;65481;47.600;19.682;2023-04-24T15:23:38;8.93;;;5.25;;
76591;SDS011;65481;47.600;19.682;2023-04-24T15:28:38;7.22;;;5.65;;
76591;SDS011;65481;47.600;19.682;2023-04-24T15:33:39;9.07;;;6.78;;
76591;SDS011;65481;47.600;19.682;2023-04-24T15:38:40;8.85;;;6.50;;
76591;SDS011;65481;47.600;19.682;2023-04-24T15:43:40;8.52;;;6.55;;
76591;SDS011;65481;47.600;19.682;2023-04-24T15:48:41;8.65;;;6.50;;
76591;SDS011;65481;47.600;19.682;2023-04-24T15:53:42;10.25;;;6.63;;
76591;SDS011;65481;47.600;19.682;2023-04-24T15:58:42;9.02;;;6.63;;
76591;SDS011;65481;47.600;19.682;2023-04-24T16:03:43;10.38;;;6.93;;
76591;SDS011;65481;47.600;19.682;2023-04-24T16:08:43;7.43;;;6.10;;
76591;SDS011;65481;47.600;19.682;2023-04-24T16:13:44;7.53;;;6.05;;
76591;SDS011;65481;47.600;19.682;2023-04-24T16:18:45;10.20;;;6.38;;
76591;SDS011;65481;47.600;19.682;2023-04-24T16:23:46;8.43;;;6.72;;
76591;SDS011;65481;47.600;19.682;2023-04-24T16:28:47;11.57;;;7.07;;
76591;SDS011;65481;47.600;19.682;2023-04-24T16:33:47;9.57;;;7.53;;
76591;SDS011;65481;47.600;19.682;2023-04-24T16:38:48;9.20;;;6.63;;
76591;SDS011;65481;47.600;19.682;2023-04-24T16:43:48;9.27;;;6.70;;
76591;SDS011;65481;47.600;19.682;2023-04-24T16:48:49;11.57;;;8.15;;
76591;SDS011;65481;47.600;19.682;2023-04-24T16:53:51;12.38;;;9.07;;
76591;SDS011;65481;47.600;19.682;2023-04-24T16:58:51;12.80;;;8.35;;
76591;SDS011;65481;47.600;19.682;2023-04-24T17:03:53;13.60;;;8.15;;
76591;SDS011;65481;47.600;19.682;2023-04-24T17:08:53;13.23;;;8.35;;
76591;SDS011;65481;47.600;19.682;2023-04-24T17:13:54;12.57;;;9.10;;
76591;SDS011;65481;47.600;19.682;2023-04-24T17:18:55;9.93;;;8.57;;
76591;SDS011;65481;47.600;19.682;2023-04-24T17:23:55;14.38;;;10.15;;
76591;SDS011;65481;47.600;19.682;2023-04-24T17:28:56;12.77;;;9.55;;
76591;SDS011;65481;47.600;19.682;2023-04-24T17:33:57;13.00;;;9.75;;
76591;SDS011;65481;47.600;19.682;2023-04-24T17:38:58;14.15;;;9.80;;
76591;SDS011;65481;47.600;19.682;2023-04-24T17:43:59;15.75;;;10.40;;
76591;SDS011;65481;47.600;19.682;2023-04-24T17:49:00;15.48;;;10.90;;
76591;SDS011;65481;47.600;19.682;2023-04-24T17:54:01;15.98;;;10.55;;
76591;SDS011;65481;47.600;19.682;2023-04-24T17:59:01;15.23;;;10.90;;
76591;SDS011;65481;47.600;19.682;2023-04-24T18:04:02;17.17;;;11.55;;
76591;SDS011;65481;47.600;19.682;2023-04-24T18:09:02;17.00;;;11.38;;
76591;SDS011;65481;47.600;19.682;2023-04-24T18:14:03;17.00;;;12.15;;
76591;SDS011;65481;47.600;19.682;2023-04-24T18:19:04;14.07;;;10.48;;
76591;SDS011;65481;47.600;19.682;2023-04-24T18:24:05;17.75;;;12.10;;
76591;SDS011;65481;47.600;19.682;2023-04-24T18:29:06;16.08;;;10.38;;
76591;SDS011;65481;47.600;19.682;2023-04-24T18:34:06;21.15;;;14.73;;
76591;SDS011;65481;47.600;19.682;2023-04-24T18:39:07;33.58;;;20.42;;
76591;SDS011;65481;47.600;19.682;2023-04-24T18:44:08;26.35;;;18.05;;
76591;SDS011;65481;47.600;19.682;2023-04-24T18:49:10;21.67;;;14.88;;
76591;SDS011;65481;47.600;19.682;2023-04-24T18:54:11;18.95;;;12.48;;
76591;SDS011;65481;47.600;19.682;2023-04-24T18:59:12;21.20;;;14.38;;
76591;SDS011;65481;47.600;19.682;2023-04-24T19:04:12;19.15;;;14.60;;
76591;SDS011;65481;47.600;19.682;2023-04-24T19:09:14;18.83;;;13.73;;
76591;SDS011;65481;47.600;19.682;2023-04-24T19:14:16;19.88;;;13.23;;
76591;SDS011;65481;47.600;19.682;2023-04-24T19:19:18;16.20;;;12.68;;
76591;SDS011;65481;47.600;19.682;2023-04-24T19:24:19;18.58;;;13.00;;
76591;SDS011;65481;47.600;19.682;2023-04-24T19:29:20;16.50;;;13.18;;
76591;SDS011;65481;47.600;19.682;2023-04-24T19:34:21;18.38;;;13.90;;
76591;SDS011;65481;47.600;19.682;2023-04-24T19:39:22;18.23;;;13.57;;
76591;SDS011;65481;47.600;19.682;2023-04-24T19:44:23;21.20;;;14.68;;
76591;SDS011;65481;47.600;19.682;2023-04-24T19:49:24;20.85;;;14.90;;
76591;SDS011;65481;47.600;19.682;2023-04-24T19:54:25;18.88;;;14.05;;
76591;SDS011;65481;47.600;19.682;2023-04-24T19:59:25;20.52;;;15.32;;
76591;SDS011;65481;47.600;19.682;2023-04-24T20:04:26;19.92;;;15.57;;
76591;SDS011;65481;47.600;19.682;2023-04-24T20:09:27;24.88;;;17.70;;
76591;SDS011;65481;47.600;19.682;2023-04-24T20:14:28;19.17;;;13.02;;
76591;SDS011;65481;47.600;19.682;2023-04-24T20:19:28;19.42;;;13.68;;
76591;SDS011;65481;47.600;19.682;2023-04-24T20:24:29;17.17;;;12.75;;
76591;SDS011;65481;47.600;19.682;2023-04-24T20:29:30;18.25;;;11.90;;
76591;SDS011;65481;47.600;19.682;2023-04-24T20:34:30;23.50;;;14.68;;
76591;SDS011;65481;47.600;19.682;2023-04-24T20:39:31;55.65;;;25.08;;
76591;SDS011;65481;47.600;19.682;2023-04-24T20:44:31;22.25;;;13.95;;
76591;SDS011;65481;47.600;19.682;2023-04-24T20:49:32;17.58;;;12.15;;
76591;SDS011;65481;47.600;19.682;2023-04-24T20:54:32;13.93;;;10.55;;
76591;SDS011;65481;47.600;19.682;2023-04-24T20:59:33;16.38;;;10.77;;
76591;SDS011;65481;47.600;19.682;2023-04-24T21:04:33;26.20;;;16.83;;
76591;SDS011;65481;47.600;19.682;2023-04-24T21:09:37;11.98;;;8.95;;
76591;SDS011;65481;47.600;19.682;2023-04-24T21:14:38;12.18;;;9.13;;
76591;SDS011;65481;47.600;19.682;2023-04-24T21:19:38;9.85;;;6.53;;
76591;SDS011;65481;47.600;19.682;2023-04-24T21:24:39;7.53;;;5.57;;
76591;SDS011;65481;47.600;19.682;2023-04-24T21:29:40;7.22;;;5.32;;
76591;SDS011;65481;47.600;19.682;2023-04-24T21:34:43;6.75;;;5.32;;
76591;SDS011;65481;47.600;19.682;2023-04-24T21:39:43;6.00;;;5.00;;
76591;SDS011;65481;47.600;19.682;2023-04-24T21:44:52;6.50;;;4.97;;
76591;SDS011;65481;47.600;19.682;2023-04-24T21:49:53;8.13;;;5.20;;
76591;SDS011;65481;47.600;19.682;2023-04-24T21:54:53;8.63;;;4.95;;
76591;SDS011;65481;47.600;19.682;2023-04-24T21:59:54;8.10;;;5.22;;
76591;SDS011;65481;47.600;19.682;2023-04-24T22:04:55;9.38;;;5.38;;
76591;SDS011;65481;47.600;19.682;2023-04-24T22:09:56;12.25;;;5.63;;
76591;SDS011;65481;47.600;19.682;2023-04-24T22:14:56;9.18;;;5.60;;
76591;SDS011;65481;47.600;19.682;2023-04-24T22:19:57;9.40;;;6.13;;
76591;SDS011;65481;47.600;19.682;2023-04-24T22:24:58;7.47;;;5.65;;
76591;SDS011;65481;47.600;19.682;2023-04-24T22:29:58;7.72;;;5.70;;
76591;SDS011;65481;47.600;19.682;2023-04-24T22:34:59;6.70;;;5.30;;
76591;SDS011;65481;47.600;19.682;2023-04-24T22:39:59;7.57;;;5.88;;
76591;SDS011;65481;47.600;19.682;2023-04-24T22:45:00;10.07;;;5.55;;
76591;SDS011;65481;47.600;19.682;2023-04-24T22:50:01;10.02;;;5.85;;
76591;SDS011;65481;47.600;19.682;2023-04-24T22:55:02;7.55;;;6.00;;
76591;SDS011;65481;47.600;19.682;2023-04-24T23:00:03;7.28;;;5.18;;
76591;SDS011;65481;47.600;19.682;2023-04-24T23:10:10;8.30;;;5.55;;
76591;SDS011;65481;47.600;19.682;2023-04-24T23:15:11;7.72;;;5.95;;
76591;SDS011;65481;47.600;19.682;2023-04-24T23:20:11;8.32;;;6.28;;
76591;SDS011;65481;47.600;19.682;2023-04-24T23:25:13;11.77;;;7.13;;
76591;SDS011;65481;47.600;19.682;2023-04-24T23:30:13;9.93;;;7.13;;
76591;SDS011;65481;47.600;19.682;2023-04-24T23:35:14;9.88;;;6.68;;
76591;SDS011;65481;47.600;19.682;2023-04-24T23:40:14;11.23;;;7.13;;
76591;SDS011;65481;47.600;19.682;2023-04-24T23:45:15;7.95;;;6.65;;
76591;SDS011;65481;47.600;19.682;2023-04-24T23:50:16;9.27;;;6.68;;
76591;SDS011;65481;47.600;19.682;2023-04-24T23:55:16;7.53;;;5.47;;
